Time;durP1;ratioP1;P1;durP2;ratioP2;P2;SDS_P1;SDS_P2;PMS_P1;PMS_P2;Temp;Humidity;BMP_temperature;BMP_pressure;BME280_temperature;BME280_humidity;BME280_pressure;Samples;Min_cycle;Max_cycle;Signal;HPM_P1;HPM_P2
2023/02/08 00:00:42;;;;;;;40.53;30.60;;;;;;;;;;5014036;28;20444;-82
2023/02/08 00:03:11;;;;;;;35.13;29.25;;;;;;;;;;5032964;28;20395;-81
2023/02/08 00:05:37;;;;;;;36.92;30.33;;;;;;;;;;5032281;28;20388;-81
2023/02/08 00:08:06;;;;;;;35.40;29.77;;;;;;;;;;5031807;28;20377;-81
2023/02/08 00:10:33;;;;;;;39.28;31.92;;;;;;;;;;5030295;28;20446;-81
2023/02/08 00:12:59;;;;;;;41.22;33.63;;;;;;;;;;5012164;28;20396;-80
2023/02/08 00:15:29;;;;;;;41.97;34.57;;;;;;;;;;5030177;28;20472;-81
2023/02/08 00:17:55;;;;;;;40.53;33.50;;;;;;;;;;5030798;28;20471;-81
2023/02/08 00:20:21;;;;;;;40.35;32.97;;;;;;;;;;5027906;28;20425;-81
2023/02/08 00:22:50;;;;;;;43.80;34.80;;;;;;;;;;5030385;28;20405;-81
2023/02/08 00:25:18;;;;;;;45.30;34.83;;;;;;;;;;5030165;28;20382;-81
2023/02/08 00:27:51;;;;;;;41.92;33.38;;;;;;;;;;5011929;28;20374;-81
2023/02/08 00:30:18;;;;;;;44.10;35.05;;;;;;;;;;5029435;28;20404;-80
2023/02/08 00:32:44;;;;;;;46.83;37.10;;;;;;;;;;5031077;28;20381;-80
2023/02/08 00:35:12;;;;;;;50.33;39.13;;;;;;;;;;5012193;28;20393;-81
2023/02/08 00:37:59;;;;;;;47.35;38.35;;;;;;;;;;5011869;28;21125;-81
2023/02/08 00:40:28;;;;;;;46.03;36.95;;;;;;;;;;5028786;28;20506;-81
2023/02/08 00:42:57;;;;;;;62.58;51.28;;;;;;;;;;5013606;28;20393;-81
2023/02/08 00:45:23;;;;;;;57.20;46.85;;;;;;;;;;5030558;28;20373;-81
2023/02/08 00:47:52;;;;;;;56.20;45.13;;;;;;;;;;5031155;28;20934;-81
2023/02/08 00:50:21;;;;;;;50.20;41.25;;;;;;;;;;5031579;28;20365;-81
2023/02/08 00:52:47;;;;;;;47.53;41.38;;;;;;;;;;5031427;28;20366;-81
2023/02/08 00:55:13;;;;;;;44.42;38.20;;;;;;;;;;5031555;28;20787;-81
2023/02/08 00:57:42;;;;;;;43.55;38.00;;;;;;;;;;5030793;28;20748;-81
2023/02/08 01:00:08;;;;;;;48.63;37.93;;;;;;;;;;5031569;28;20389;-80
2023/02/08 01:02:44;;;;;;;45.42;37.45;;;;;;;;;;5012947;28;20385;-80
2023/02/08 01:05:13;;;;;;;44.20;36.72;;;;;;;;;;5012871;28;20461;-80
2023/02/08 01:07:46;;;;;;;44.40;35.83;;;;;;;;;;5030780;28;20408;-81
2023/02/08 01:10:12;;;;;;;40.57;33.73;;;;;;;;;;5030945;28;20790;-81
2023/02/08 01:12:43;;;;;;;43.25;34.15;;;;;;;;;;5029932;28;20381;-81
2023/02/08 01:15:13;;;;;;;44.53;36.43;;;;;;;;;;5030805;28;20427;-81
2023/02/08 01:17:44;;;;;;;44.92;37.17;;;;;;;;;;5029912;28;20366;-81
2023/02/08 01:20:30;;;;;;;39.77;34.27;;;;;;;;;;5029300;28;20376;-81
2023/02/08 01:22:58;;;;;;;40.97;34.95;;;;;;;;;;5030715;28;20464;-80
2023/02/08 01:25:45;;;;;;;;;;;;;;;;;;;;;
2023/02/08 01:28:52;;;;;;;40.10;33.40;;;;;;;;;;5030154;28;20387;-81
2023/02/08 01:34:08;;;;;;;41.97;34.17;;;;;;;;;;5017204;28;20737;-81
2023/02/08 01:36:35;;;;;;;40.53;34.63;;;;;;;;;;5012966;28;20388;-82
2023/02/08 01:39:18;;;;;;;44.83;35.40;;;;;;;;;;5029782;28;20785;-81
2023/02/08 01:41:45;;;;;;;40.90;33.45;;;;;;;;;;5030761;28;20393;-81
2023/02/08 01:44:16;;;;;;;41.17;32.60;;;;;;;;;;5028927;28;20690;-81
2023/02/08 01:46:52;;;;;;;38.07;32.67;;;;;;;;;;5011259;28;20457;-81
2023/02/08 01:51:49;;;;;;;45.67;36.42;;;;;;;;;;4946440;29;20498;-82
2023/02/08 01:54:32;;;;;;;43.25;35.88;;;;;;;;;;4950934;29;20396;-82
2023/02/08 01:57:06;;;;;;;45.58;37.58;;;;;;;;;;4948603;28;20392;-81
2023/02/08 02:00:06;;;;;;;;;;;;;;;;;;;;;
2023/02/08 02:02:41;;;;;;;42.53;34.60;;;;;;;;;;4944133;29;20412;-82
2023/02/08 02:08:23;;;;;;;42.53;34.80;;;;;;;;;;4941873;29;20516;-82
2023/02/08 02:11:04;;;;;;;;;;;;;;;;;;;;;
2023/02/08 02:13:53;;;;;;;;;;;;;;;;;;;;;
2023/02/08 02:16:46;;;;;;;38.45;32.55;;;;;;;;;;4950186;29;20380;-82
2023/02/08 02:19:47;;;;;;;41.37;33.70;;;;;;;;;;4932427;29;20530;-82
2023/02/08 02:36:22;;;;;;;;;;;;;;;;;;;;;
2023/02/08 02:54:50;;;;;;;;;;;;;;;;;;;;;
2023/02/08 03:00:48;;;;;;;;;;;;;;;;;;;;;
2023/02/08 03:03:50;;;;;;;;;;;;;;;;;;;;;
2023/02/08 03:25:47;;;;;;;;;;;;;;;;;;;;;
2023/02/08 05:39:42;;;;;;;47.97;39.25;;;;;;;;;;4742095;30;20411;-81
2023/02/08 05:42:18;;;;;;;45.78;37.45;;;;;;;;;;4855215;29;20492;-82
2023/02/08 05:44:53;;;;;;;47.65;38.65;;;;;;;;;;4911750;29;20397;-81
2023/02/08 05:50:22;;;;;;;47.55;38.80;;;;;;;;;;4903701;29;21259;-81
2023/02/08 07:40:56;;;;;;;50.97;39.25;;;;;;;;;;4695958;30;20418;-81
2023/02/08 08:05:12;;;;;;;54.67;42.87;;;;;;;;;;4715780;30;20905;-78
2023/02/08 08:07:38;;;;;;;53.45;41.83;;;;;;;;;;4751067;30;20417;-78
2023/02/08 08:10:04;;;;;;;55.45;43.45;;;;;;;;;;4814441;29;20391;-81
2023/02/08 08:12:54;;;;;;;56.08;42.88;;;;;;;;;;4950798;29;20404;-80
2023/02/08 08:28:52;;;;;;;54.25;40.60;;;;;;;;;;4874367;29;20401;-80
2023/02/08 08:34:51;;;;;;;46.00;36.78;;;;;;;;;;4865669;29;20531;-80
2023/02/08 09:05:06;;;;;;;41.78;32.95;;;;;;;;;;4822407;29;20443;-81
2023/02/08 09:07:50;;;;;;;41.00;31.33;;;;;;;;;;4874160;29;21001;-81
2023/02/08 09:10:36;;;;;;;40.13;30.60;;;;;;;;;;4940897;29;20470;-81
2023/02/08 09:13:10;;;;;;;38.20;30.52;;;;;;;;;;4933442;29;20849;-80
2023/02/08 09:15:43;;;;;;;38.63;30.95;;;;;;;;;;4950713;29;20795;-81
2023/02/08 09:18:12;;;;;;;36.80;29.17;;;;;;;;;;4950714;29;20377;-81
2023/02/08 09:20:38;;;;;;;39.15;30.20;;;;;;;;;;4951900;29;20719;-81
2023/02/08 09:23:04;;;;;;;36.88;28.70;;;;;;;;;;4947683;29;20396;-80
2023/02/08 09:25:32;;;;;;;37.17;30.10;;;;;;;;;;4951127;29;20381;-80
2023/02/08 09:27:58;;;;;;;39.47;30.25;;;;;;;;;;4952288;29;20380;-80
2023/02/08 09:30:29;;;;;;;38.55;28.85;;;;;;;;;;4953813;28;20439;-81
2023/02/08 09:32:55;;;;;;;35.47;28.17;;;;;;;;;;4933474;29;20415;-81
2023/02/08 09:35:21;;;;;;;40.67;29.92;;;;;;;;;;4950851;29;20392;-80
2023/02/08 09:37:47;;;;;;;37.90;30.05;;;;;;;;;;4950759;29;20463;-80
2023/02/08 09:40:26;;;;;;;37.35;29.30;;;;;;;;;;4949990;29;20456;-79
2023/02/08 09:43:03;;;;;;;38.17;28.80;;;;;;;;;;4945176;28;20839;-80
2023/02/08 09:45:35;;;;;;;38.72;29.52;;;;;;;;;;4947742;28;20452;-81
2023/02/08 09:48:14;;;;;;;38.80;29.60;;;;;;;;;;4947377;29;20372;-81
2023/02/08 09:50:45;;;;;;;37.35;28.75;;;;;;;;;;4952058;29;20384;-81
2023/02/08 09:53:11;;;;;;;37.95;29.05;;;;;;;;;;4938327;29;20828;-81
2023/02/08 09:55:45;;;;;;;34.55;28.25;;;;;;;;;;4916144;29;20741;-80
2023/02/08 09:58:21;;;;;;;35.60;28.50;;;;;;;;;;4915354;29;20374;-81
2023/02/08 10:00:49;;;;;;;39.00;29.83;;;;;;;;;;4932585;29;20376;-79
2023/02/08 10:03:21;;;;;;;36.05;29.10;;;;;;;;;;4952375;29;20400;-81
2023/02/08 10:05:47;;;;;;;40.75;31.70;;;;;;;;;;4950498;28;20381;-81
2023/02/08 10:08:13;;;;;;;36.85;29.05;;;;;;;;;;4951721;29;20467;-81
2023/02/08 10:10:58;;;;;;;36.92;28.95;;;;;;;;;;4952351;29;20455;-79
2023/02/08 10:13:24;;;;;;;37.83;28.48;;;;;;;;;;4952178;29;20879;-80
2023/02/08 10:15:53;;;;;;;35.63;28.70;;;;;;;;;;4951565;29;20408;-81
2023/02/08 10:18:27;;;;;;;37.88;29.40;;;;;;;;;;4950015;29;20856;-81
2023/02/08 10:21:12;;;;;;;37.67;29.25;;;;;;;;;;4932063;29;20430;-81
2023/02/08 10:23:57;;;;;;;38.65;30.10;;;;;;;;;;4934658;28;20400;-81
2023/02/08 10:26:30;;;;;;;38.13;29.33;;;;;;;;;;4950456;28;20392;-80
2023/02/08 10:35:41;;;;;;;;;;;;;;;;;;;;;
2023/02/08 10:41:24;;;;;;;39.03;31.15;;;;;;;;;;4886010;29;20405;-80
2023/02/08 11:02:45;;;;;;;;;;;;;;;;;;;;;
2023/02/08 11:05:33;;;;;;;38.40;29.13;;;;;;;;;;4851672;29;20381;-80
2023/02/08 11:36:33;;;;;;;38.88;30.35;;;;;;;;;;4940087;28;20444;-79
2023/02/08 11:45:18;;;;;;;41.38;32.35;;;;;;;;;;4857557;29;20916;-81
2023/02/08 11:47:46;;;;;;;41.95;32.60;;;;;;;;;;4911544;29;20392;-81
2023/02/08 11:50:23;;;;;;;41.38;33.60;;;;;;;;;;4939098;28;20501;-80
2023/02/08 11:52:54;;;;;;;41.08;32.05;;;;;;;;;;4952786;28;20478;-80
2023/02/08 11:55:22;;;;;;;45.92;32.67;;;;;;;;;;4929646;29;20777;-80
2023/02/08 11:57:59;;;;;;;43.55;33.20;;;;;;;;;;4939278;28;21072;-80
2023/02/08 12:00:27;;;;;;;46.47;34.90;;;;;;;;;;4940176;29;20389;-80
2023/02/08 12:03:13;;;;;;;43.53;33.92;;;;;;;;;;4940298;28;20887;-80
2023/02/08 12:05:48;;;;;;;42.17;33.78;;;;;;;;;;4925613;29;20380;-80
2023/02/08 12:08:34;;;;;;;46.20;35.20;;;;;;;;;;4948272;28;20414;-80
2023/02/08 12:11:06;;;;;;;42.88;34.97;;;;;;;;;;4923652;28;20832;-81
2023/02/08 12:13:39;;;;;;;45.30;35.47;;;;;;;;;;4946383;28;20392;-81
2023/02/08 12:16:24;;;;;;;46.75;36.17;;;;;;;;;;4947135;28;20392;-80
2023/02/08 12:19:08;;;;;;;44.58;34.47;;;;;;;;;;4948646;28;20399;-80
2023/02/08 12:21:41;;;;;;;45.17;34.47;;;;;;;;;;4947143;28;20401;-81
2023/02/08 12:24:16;;;;;;;45.47;35.63;;;;;;;;;;4963544;28;20467;-81
2023/02/08 12:27:01;;;;;;;46.17;35.65;;;;;;;;;;4965435;28;20383;-80
2023/02/08 12:29:50;;;;;;;46.13;35.53;;;;;;;;;;4949832;29;20393;-81
2023/02/08 12:32:36;;;;;;;50.27;37.33;;;;;;;;;;4954813;28;20881;-82
2023/02/08 12:35:18;;;;;;;46.45;35.67;;;;;;;;;;4938636;29;20388;-81
2023/02/08 12:43:43;;;;;;;45.97;34.78;;;;;;;;;;4928006;28;20408;-81
2023/02/08 12:50:12;;;;;;;46.40;35.75;;;;;;;;;;4946932;28;20431;-81
2023/02/08 12:52:42;;;;;;;44.75;34.58;;;;;;;;;;4941064;28;20369;-81
2023/02/08 12:55:31;;;;;;;48.78;36.78;;;;;;;;;;4925734;29;20394;-80
2023/02/08 13:00:59;;;;;;;46.75;36.08;;;;;;;;;;4938167;29;20475;-81
2023/02/08 13:16:59;;;;;;;45.45;35.28;;;;;;;;;;4746092;30;20478;-81
2023/02/08 13:32:21;;;;;;;43.58;34.42;;;;;;;;;;4772943;29;20468;-81
2023/02/08 13:47:58;;;;;;;;;;;;;;;;;;;;;
2023/02/08 13:50:43;;;;;;;42.88;34.55;;;;;;;;;;4788923;29;20478;-80
2023/02/08 13:59:28;;;;;;;46.85;36.72;;;;;;;;;;4890757;29;20409;-81
2023/02/08 14:02:35;;;;;;;46.63;36.07;;;;;;;;;;4876651;29;20453;-80
2023/02/08 14:05:25;;;;;;;49.13;37.70;;;;;;;;;;4821179;29;20622;-80
2023/02/08 14:17:49;;;;;;;44.87;35.47;;;;;;;;;;4728166;30;20412;-80
2023/02/08 14:39:44;;;;;;;;;;;;;;;;;;;;;
2023/02/08 15:15:35;;;;;;;;;;;;;;;;;;;;;
2023/02/08 16:15:03;;;;;;;48.15;37.72;;;0.70;99.90;;;;;;4891526;29;20691;-79
2023/02/08 21:09:20;;;;;;;32.40;24.42;;;-1.60;99.90;;;;;;4955869;28;20468;-80
2023/02/08 21:11:47;;;;;;;33.17;25.42;;;-1.60;99.90;;;;;;4957806;28;20438;-81
2023/02/08 21:14:17;;;;;;;28.95;23.60;;;-1.60;99.90;;;;;;4963967;28;20374;-81
2023/02/08 21:16:48;;;;;;;30.88;23.70;;;-1.60;99.90;;;;;;4944752;28;20403;-82
2023/02/08 21:19:14;;;;;;;31.80;24.23;;;-1.60;99.90;;;;;;4959631;28;20394;-79
2023/02/08 21:21:41;;;;;;;29.85;23.73;;;-1.60;99.90;;;;;;4952762;29;20364;-80
2023/02/08 21:24:07;;;;;;;29.80;22.98;;;-1.60;99.90;;;;;;4955691;28;20444;-80
2023/02/08 21:26:36;;;;;;;28.67;22.45;;;-1.50;99.90;;;;;;4961666;28;20405;-80
2023/02/08 21:29:05;;;;;;;29.58;23.17;;;-1.50;99.90;;;;;;4944222;28;20948;-80
2023/02/08 21:31:35;;;;;;;30.05;23.40;;;-1.40;99.90;;;;;;4958521;28;20409;-79
2023/02/08 21:34:01;;;;;;;30.42;23.73;;;-1.40;99.90;;;;;;4957272;28;21190;-81
2023/02/08 21:36:28;;;;;;;28.40;22.42;;;-1.40;99.90;;;;;;4955746;28;20399;-80
2023/02/08 21:39:00;;;;;;;29.08;22.50;;;-1.40;99.90;;;;;;4951736;28;20463;-81
2023/02/08 21:41:34;;;;;;;29.57;22.27;;;-1.50;99.90;;;;;;4957621;28;20790;-81
2023/02/08 21:44:02;;;;;;;30.88;22.95;;;-1.40;99.90;;;;;;4959029;28;20552;-80
2023/02/08 21:46:29;;;;;;;28.50;22.95;;;-1.50;99.90;;;;;;4959950;28;20445;-81
2023/02/08 21:54:44;;;;;;;28.70;22.65;;;-1.40;99.90;;;;;;4953296;28;20493;-80
2023/02/08 21:57:21;;;;;;;27.80;22.10;;;-1.50;99.90;;;;;;4957316;28;21116;-80
2023/02/08 21:59:49;;;;;;;31.13;23.13;;;-1.50;99.90;;;;;;4946150;28;20380;-80
2023/02/08 22:02:24;;;;;;;27.60;22.80;;;-1.50;99.90;;;;;;4950439;28;20456;-81
2023/02/08 22:04:51;;;;;;;28.35;22.95;;;-1.50;99.90;;;;;;4943679;28;20489;-80
2023/02/08 22:07:17;;;;;;;28.25;23.08;;;-1.60;99.90;;;;;;4960998;28;20438;-80
2023/02/08 22:09:43;;;;;;;30.58;23.33;;;-1.50;99.90;;;;;;4941779;29;20725;-79
2023/02/08 22:12:17;;;;;;;29.13;22.83;;;-1.50;99.90;;;;;;4955999;28;20412;-80
2023/02/08 22:14:44;;;;;;;29.25;23.02;;;-1.60;99.90;;;;;;4955375;28;20491;-80
2023/02/08 22:17:11;;;;;;;30.25;23.33;;;-1.60;99.90;;;;;;4940462;28;20738;-80
2023/02/08 22:19:41;;;;;;;28.42;22.52;;;-1.60;99.90;;;;;;4938334;28;20881;-79
2023/02/08 22:22:10;;;;;;;26.75;22.15;;;-1.60;99.90;;;;;;4957250;28;20495;-80
2023/02/08 22:24:36;;;;;;;28.25;22.55;;;-1.70;99.90;;;;;;4960739;28;20403;-80
2023/02/08 22:27:02;;;;;;;28.55;23.48;;;-1.70;99.90;;;;;;4960423;28;20424;-80
2023/02/08 22:29:28;;;;;;;27.25;22.40;;;-1.70;99.90;;;;;;4958993;28;20914;-81
2023/02/08 22:31:54;;;;;;;29.80;22.87;;;-1.70;99.90;;;;;;4960683;28;20414;-81
2023/02/08 22:34:20;;;;;;;28.75;22.85;;;-1.70;99.90;;;;;;4943118;28;20490;-80
2023/02/08 22:36:46;;;;;;;27.30;22.80;;;-1.80;99.90;;;;;;4956628;28;20512;-79
2023/02/08 22:39:12;;;;;;;29.92;23.17;;;-1.90;99.90;;;;;;4938565;28;20750;-80
2023/02/08 22:41:38;;;;;;;29.25;22.60;;;-1.90;99.90;;;;;;4959911;28;20526;-80
2023/02/08 22:44:03;;;;;;;29.63;22.95;;;-1.90;99.90;;;;;;4960104;28;20491;-79
2023/02/08 22:46:29;;;;;;;27.27;22.07;;;-2.00;99.90;;;;;;4958074;28;20452;-80
2023/02/08 22:48:55;;;;;;;29.43;23.47;;;-2.00;99.90;;;;;;4935953;28;20408;-80
2023/02/08 22:51:22;;;;;;;30.50;23.57;;;-2.00;99.90;;;;;;4941777;28;20783;-80
2023/02/08 22:53:48;;;;;;;31.42;24.08;;;-2.10;99.90;;;;;;4961083;28;20425;-80
2023/02/08 22:56:18;;;;;;;30.48;23.55;;;-2.10;99.90;;;;;;4957040;28;20420;-80
2023/02/08 22:58:43;;;;;;;31.48;23.67;;;-2.00;99.90;;;;;;4970970;28;20457;-80
2023/02/08 23:01:11;;;;;;;29.13;23.45;;;-2.10;99.90;;;;;;4949991;29;20517;-79
2023/02/08 23:03:37;;;;;;;30.95;24.27;;;-2.10;99.90;;;;;;4951721;29;20491;-80
2023/02/08 23:06:05;;;;;;;30.35;24.02;;;-2.20;99.90;;;;;;4951885;29;20384;-80
2023/02/08 23:08:31;;;;;;;31.17;24.27;;;-2.20;99.90;;;;;;4951629;29;20373;-81
2023/02/08 23:10:58;;;;;;;28.85;23.90;;;-2.20;99.90;;;;;;4951198;28;20521;-80
2023/02/08 23:13:25;;;;;;;32.10;24.00;;;-2.30;99.90;;;;;;4951946;29;20412;-79
2023/02/08 23:15:50;;;;;;;31.58;24.95;;;-2.40;99.90;;;;;;4949611;28;20458;-79
2023/02/08 23:18:16;;;;;;;32.90;24.45;;;-2.50;99.90;;;;;;4950291;28;20544;-79
2023/02/08 23:20:42;;;;;;;30.70;24.67;;;-2.50;99.90;;;;;;4951610;29;20882;-80
2023/02/08 23:23:08;;;;;;;31.38;25.33;;;-2.60;99.90;;;;;;4933385;29;20408;-79
2023/02/08 23:25:38;;;;;;;32.05;25.10;;;-2.60;99.90;;;;;;4950894;28;20729;-79
2023/02/08 23:28:04;;;;;;;34.47;26.15;;;-2.60;99.90;;;;;;4954711;29;20729;-79
2023/02/08 23:30:30;;;;;;;32.10;24.55;;;-2.50;99.90;;;;;;4955170;29;20372;-79
2023/02/08 23:32:56;;;;;;;31.30;24.80;;;-2.60;99.90;;;;;;4955158;29;20380;-80
2023/02/08 23:35:22;;;;;;;32.40;23.90;;;-2.50;99.90;;;;;;4954936;29;20403;-79
2023/02/08 23:37:48;;;;;;;33.13;26.00;;;-2.50;99.90;;;;;;4954110;29;20380;-78
2023/02/08 23:40:15;;;;;;;32.33;25.30;;;-2.70;99.90;;;;;;4953435;29;20443;-79
2023/02/08 23:42:41;;;;;;;31.38;24.80;;;-2.70;99.90;;;;;;4954067;28;20473;-78
2023/02/08 23:45:07;;;;;;;31.40;24.33;;;-2.70;99.90;;;;;;4952846;29;20411;-80
2023/02/08 23:47:33;;;;;;;29.10;23.95;;;-2.80;99.90;;;;;;4952146;29;20415;-79
2023/02/08 23:49:59;;;;;;;32.78;25.42;;;-2.80;99.90;;;;;;4952934;29;20372;-78
2023/02/08 23:52:25;;;;;;;32.88;24.80;;;-2.80;99.90;;;;;;4953296;29;20381;-79
2023/02/08 23:54:51;;;;;;;32.33;25.33;;;-2.80;99.90;;;;;;4952738;29;20415;-79
2023/02/08 23:57:16;;;;;;;32.47;24.17;;;-2.90;99.90;;;;;;4957171;28;20433;-79
2023/02/08 23:59:42;;;;;;;33.63;26.20;;;-3.00;99.90;;;;;;4954153;28;20799;-80
